Time;durP1;ratioP1;P1;durP2;ratioP2;P2;SDS_P1;SDS_P2;PMS_P1;PMS_P2;Temp;Humidity;BMP_temperature;BMP_pressure;BME280_temperature;BME280_humidity;BME280_pressure;Samples;Min_cycle;Max_cycle;Signal;HPM_P1;HPM_P2
2022/07/13 00:00:12;;;;;;;4.07;1.08;;;21.20;95.10;;;;;;5009938;28;20427;-44
2022/07/13 00:02:38;;;;;;;1.00;1.00;;;21.20;95.30;;;;;;5009698;28;20512;-45
2022/07/13 00:05:06;;;;;;;4.78;1.63;;;21.20;95.40;;;;;;5009754;28;20038;-46
2022/07/13 00:07:32;;;;;;;1.55;1.20;;;21.20;95.30;;;;;;5009209;28;20053;-49
2022/07/13 00:09:58;;;;;;;2.13;1.40;;;21.20;95.50;;;;;;5009716;28;20064;-45
2022/07/13 00:12:24;;;;;;;2.03;1.20;;;21.20;95.50;;;;;;5009615;28;20078;-46
2022/07/13 00:14:49;;;;;;;1.23;1.10;;;21.20;95.60;;;;;;5009561;28;20104;-49
2022/07/13 00:17:15;;;;;;;3.85;1.27;;;21.20;95.60;;;;;;5007760;28;20026;-45
2022/07/13 00:19:40;;;;;;;3.90;1.20;;;21.20;95.60;;;;;;5009795;28;20022;-46
2022/07/13 00:22:06;;;;;;;2.63;1.20;;;21.10;94.90;;;;;;5009487;28;20022;-47
2022/07/13 00:24:31;;;;;;;1.63;1.15;;;21.00;93.80;;;;;;5009591;28;20026;-46
2022/07/13 00:26:57;;;;;;;1.48;1.25;;;21.00;93.80;;;;;;5008649;28;20043;-46
2022/07/13 00:29:22;;;;;;;2.05;1.42;;;21.10;94.50;;;;;;5009715;28;20125;-48
2022/07/13 00:31:48;;;;;;;3.80;1.23;;;21.10;95.00;;;;;;5009308;28;20564;-44
2022/07/13 00:34:14;;;;;;;4.47;1.42;;;21.10;95.20;;;;;;5009317;28;20166;-46
2022/07/13 00:36:39;;;;;;;3.72;1.50;;;21.10;95.40;;;;;;5009274;28;20026;-48
2022/07/13 00:39:05;;;;;;;2.58;1.00;;;21.10;96.00;;;;;;5008559;28;20397;-49
2022/07/13 00:41:30;;;;;;;5.85;1.88;;;21.00;95.60;;;;;;5009297;28;20025;-46
2022/07/13 00:44:09;;;;;;;1.30;1.20;;;20.80;96.10;;;;;;5009177;28;20075;-46
2022/07/13 00:46:35;;;;;;;4.35;1.45;;;20.80;96.40;;;;;;5009024;28;20034;-46
2022/07/13 00:49:01;;;;;;;3.08;1.20;;;20.70;96.80;;;;;;5008467;28;20021;-45
2022/07/13 00:51:28;;;;;;;1.23;1.10;;;20.70;96.90;;;;;;5008973;28;20030;-48
2022/07/13 00:53:54;;;;;;;3.17;1.45;;;20.70;97.10;;;;;;5009005;28;20502;-46
2022/07/13 00:56:20;;;;;;;1.27;1.17;;;20.70;97.20;;;;;;5008787;28;20033;-47
2022/07/13 00:58:46;;;;;;;2.25;1.10;;;20.80;97.40;;;;;;5008431;28;20026;-47
2022/07/13 01:01:13;;;;;;;1.83;1.65;;;20.80;97.20;;;;;;5008944;28;20064;-49
2022/07/13 01:03:39;;;;;;;1.33;1.10;;;20.90;97.20;;;;;;5008851;28;20473;-48
2022/07/13 01:06:07;;;;;;;8.27;1.58;;;20.90;96.90;;;;;;5008782;28;20155;-47
2022/07/13 01:08:34;;;;;;;4.32;1.77;;;20.90;96.80;;;;;;5008119;28;20038;-46
2022/07/13 01:11:00;;;;;;;7.40;1.60;;;20.90;96.70;;;;;;5008838;28;20024;-46
2022/07/13 01:13:26;;;;;;;5.93;1.67;;;20.90;96.40;;;;;;5008675;28;20497;-45
2022/07/13 01:15:51;;;;;;;4.07;1.23;;;20.90;96.80;;;;;;5007537;28;20113;-47
2022/07/13 01:18:17;;;;;;;3.72;1.15;;;21.00;97.30;;;;;;5007909;28;20116;-45
2022/07/13 01:20:43;;;;;;;6.13;1.58;;;21.00;97.30;;;;;;5008421;28;20030;-45
2022/07/13 01:23:13;;;;;;;3.33;1.40;;;21.00;97.30;;;;;;5008571;28;20406;-49
2022/07/13 01:25:39;;;;;;;4.40;1.50;;;21.00;97.30;;;;;;5008398;28;20030;-47
2022/07/13 01:28:05;;;;;;;2.28;1.50;;;21.00;96.80;;;;;;5009094;28;20053;-46
2022/07/13 01:30:30;;;;;;;2.17;1.52;;;20.90;96.70;;;;;;5010961;28;20073;-50
2022/07/13 01:32:56;;;;;;;5.63;1.80;;;20.90;96.80;;;;;;5012269;28;20080;-48
2022/07/13 01:35:23;;;;;;;2.67;1.60;;;20.90;96.90;;;;;;5012009;28;20083;-50
2022/07/13 01:37:50;;;;;;;3.50;1.50;;;20.80;96.60;;;;;;5011283;28;20026;-46
2022/07/13 01:40:15;;;;;;;2.33;1.52;;;20.80;96.90;;;;;;5012097;28;20525;-50
2022/07/13 01:42:43;;;;;;;1.50;1.40;;;20.80;97.40;;;;;;5011774;28;20109;-51
2022/07/13 01:45:09;;;;;;;3.60;1.33;;;20.70;97.60;;;;;;5012260;28;20086;-47
2022/07/13 01:47:39;;;;;;;1.60;1.50;;;20.70;97.70;;;;;;5011265;28;20058;-47
2022/07/13 01:50:07;;;;;;;4.30;1.67;;;20.70;97.90;;;;;;5012023;28;20382;-45
2022/07/13 01:52:33;;;;;;;4.07;1.50;;;20.70;98.00;;;;;;5009984;28;20548;-46
2022/07/13 01:54:59;;;;;;;1.40;1.30;;;20.70;97.90;;;;;;5011692;28;20030;-46
2022/07/13 01:57:24;;;;;;;4.95;1.60;;;20.70;98.10;;;;;;5027456;23;20080;-46
2022/07/13 01:59:51;;;;;;;3.40;1.23;;;20.60;98.20;;;;;;5054547;28;20071;-46
2022/07/13 02:02:16;;;;;;;3.72;1.70;;;20.60;98.50;;;;;;5054875;28;20041;-49
2022/07/13 02:04:42;;;;;;;8.57;1.52;;;20.60;98.80;;;;;;5054600;28;20051;-45
2022/07/13 02:07:08;;;;;;;6.60;1.88;;;20.50;99.30;;;;;;5053836;28;20033;-47
2022/07/13 02:09:33;;;;;;;3.15;1.27;;;20.40;99.60;;;;;;5054587;28;20396;-46
2022/07/13 02:11:59;;;;;;;2.45;1.35;;;20.40;99.50;;;;;;5054458;28;20021;-49
2022/07/13 02:14:24;;;;;;;2.65;1.63;;;20.30;99.60;;;;;;5054560;28;20082;-46
2022/07/13 02:16:50;;;;;;;6.47;1.60;;;20.30;99.80;;;;;;5053864;28;20072;-46
2022/07/13 02:19:15;;;;;;;6.90;1.65;;;20.30;99.80;;;;;;5054031;28;20025;-48
2022/07/13 02:21:41;;;;;;;2.00;1.65;;;20.30;99.80;;;;;;5054465;28;20035;-45
2022/07/13 02:24:06;;;;;;;6.55;1.92;;;20.30;99.90;;;;;;5054321;28;20401;-45
2022/07/13 02:26:32;;;;;;;2.45;1.58;;;20.20;99.90;;;;;;5054101;28;20025;-47
2022/07/13 02:28:57;;;;;;;2.25;1.42;;;20.20;99.90;;;;;;5053468;28;20396;-47
2022/07/13 02:31:23;;;;;;;3.30;1.50;;;20.20;99.90;;;;;;5054053;28;20040;-47
2022/07/13 02:33:48;;;;;;;7.15;1.55;;;20.20;99.90;;;;;;5053897;28;20025;-49
2022/07/13 02:36:14;;;;;;;3.88;1.55;;;20.10;99.90;;;;;;5054017;28;20028;-46
2022/07/13 02:38:39;;;;;;;8.02;1.90;;;20.10;99.90;;;;;;5034809;28;20070;-44
2022/07/13 02:41:05;;;;;;;2.05;1.40;;;20.00;99.90;;;;;;5053498;28;20018;-50
2022/07/13 02:43:30;;;;;;;1.58;1.40;;;20.00;99.90;;;;;;5053874;28;20061;-50
2022/07/13 02:45:56;;;;;;;1.58;1.48;;;20.00;99.90;;;;;;5053917;28;20079;-48
2022/07/13 02:48:21;;;;;;;7.70;1.77;;;20.00;99.90;;;;;;5053094;28;20033;-47
2022/07/13 02:50:47;;;;;;;2.88;1.63;;;20.00;99.90;;;;;;5053753;28;20113;-48
2022/07/13 02:53:12;;;;;;;2.70;1.92;;;20.10;99.90;;;;;;5052615;28;20083;-46
2022/07/13 02:55:38;;;;;;;5.90;1.83;;;20.10;99.90;;;;;;5053607;28;20079;-47
2022/07/13 02:58:03;;;;;;;6.60;2.33;;;20.10;99.90;;;;;;5052708;28;20028;-46
2022/07/13 03:00:29;;;;;;;6.32;2.35;;;20.10;99.90;;;;;;5053503;28;20032;-46
2022/07/13 03:02:54;;;;;;;6.20;2.63;;;20.10;99.90;;;;;;5053509;28;20064;-48
2022/07/13 03:05:20;;;;;;;2.55;2.35;;;20.10;99.90;;;;;;5053814;28;20079;-47
2022/07/13 03:07:46;;;;;;;4.03;1.85;;;20.10;99.90;;;;;;5052767;28;20151;-47
2022/07/13 03:10:13;;;;;;;4.80;2.05;;;20.10;99.80;;;;;;5053768;28;20083;-45
2022/07/13 03:12:38;;;;;;;2.58;1.67;;;20.10;99.80;;;;;;5053352;28;20028;-50
2022/07/13 03:15:04;;;;;;;5.25;2.33;;;20.20;99.50;;;;;;5053075;28;20037;-50
2022/07/13 03:17:30;;;;;;;5.20;2.25;;;20.20;99.30;;;;;;5034334;28;20350;-49
2022/07/13 03:19:55;;;;;;;2.58;1.75;;;20.20;99.30;;;;;;5053275;28;20228;-49
2022/07/13 03:22:21;;;;;;;3.47;1.90;;;20.20;99.20;;;;;;5035247;28;20052;-47
2022/07/13 03:24:46;;;;;;;2.60;1.80;;;20.10;99.40;;;;;;5053081;28;20017;-48
2022/07/13 03:27:12;;;;;;;3.88;2.22;;;20.10;99.40;;;;;;5052346;28;20032;-46
2022/07/13 03:29:37;;;;;;;7.93;2.53;;;20.10;99.50;;;;;;5052975;28;20021;-46
2022/07/13 03:32:03;;;;;;;3.60;1.90;;;20.10;99.50;;;;;;5052911;28;20028;-49
2022/07/13 03:34:28;;;;;;;2.65;2.10;;;20.10;99.70;;;;;;5053090;28;20108;-47
2022/07/13 03:36:54;;;;;;;2.55;1.80;;;20.00;99.70;;;;;;5034247;28;20021;-48
2022/07/13 03:39:19;;;;;;;5.85;1.52;;;20.00;99.90;;;;;;5052781;28;20492;-51
2022/07/13 03:41:45;;;;;;;3.47;1.63;;;19.90;99.90;;;;;;5052968;28;20040;-47
2022/07/13 03:44:12;;;;;;;10.05;1.80;;;19.90;99.90;;;;;;5052669;28;20178;-48
2022/07/13 03:46:38;;;;;;;2.60;1.38;;;20.00;99.90;;;;;;5052977;28;20108;-50
2022/07/13 03:49:03;;;;;;;2.92;2.35;;;20.00;99.90;;;;;;5052086;28;20103;-47
2022/07/13 03:51:29;;;;;;;2.80;1.70;;;20.10;99.90;;;;;;5053820;28;20029;-50
2022/07/13 03:53:54;;;;;;;2.90;1.60;;;20.10;99.90;;;;;;5051369;28;20103;-48
2022/07/13 03:56:20;;;;;;;2.63;1.52;;;20.10;99.90;;;;;;5052388;28;20033;-49
2022/07/13 03:58:45;;;;;;;3.42;1.90;;;20.10;99.90;;;;;;5051584;28;20036;-47
2022/07/13 04:01:11;;;;;;;6.40;1.77;;;20.10;99.90;;;;;;5052490;28;20029;-47
2022/07/13 04:03:36;;;;;;;5.50;1.70;;;20.10;99.90;;;;;;5052395;28;20036;-49
2022/07/13 04:06:02;;;;;;;5.00;1.88;;;20.10;99.90;;;;;;5052403;28;20508;-49
2022/07/13 04:08:27;;;;;;;7.15;2.00;;;20.00;99.90;;;;;;5051957;28;20412;-46
2022/07/13 04:10:53;;;;;;;4.30;1.77;;;20.00;99.90;;;;;;5051979;28;20031;-48
2022/07/13 04:13:18;;;;;;;6.22;2.25;;;19.90;99.90;;;;;;5052242;28;20040;-48
2022/07/13 04:15:44;;;;;;;3.47;2.03;;;19.80;99.90;;;;;;5052095;28;20082;-46
2022/07/13 04:18:09;;;;;;;4.78;1.50;;;19.70;99.90;;;;;;5051370;28;20499;-47
2022/07/13 04:20:35;;;;;;;7.07;1.55;;;19.80;99.90;;;;;;5052279;28;20370;-48
2022/07/13 04:23:00;;;;;;;7.35;1.73;;;19.80;99.90;;;;;;5053057;28;20589;-49
2022/07/13 04:25:26;;;;;;;2.00;1.80;;;19.90;99.90;;;;;;5052242;28;20051;-45
2022/07/13 04:27:52;;;;;;;1.70;1.60;;;19.90;99.90;;;;;;5051342;28;20048;-46
2022/07/13 04:30:17;;;;;;;1.92;1.80;;;19.90;99.90;;;;;;5052042;28;20070;-47
2022/07/13 04:32:43;;;;;;;11.75;3.10;;;19.90;99.90;;;;;;5051826;28;20032;-47
2022/07/13 04:35:08;;;;;;;4.18;1.83;;;19.90;99.90;;;;;;5051846;28;20040;-46
2022/07/13 04:37:35;;;;;;;5.05;1.80;;;20.00;99.90;;;;;;5051028;28;20452;-45
2022/07/13 04:40:01;;;;;;;5.10;1.73;;;19.80;99.90;;;;;;5051698;28;20154;-50
2022/07/13 04:42:27;;;;;;;3.28;1.83;;;19.90;99.90;;;;;;5052000;28;20439;-47
2022/07/13 04:44:52;;;;;;;1.60;1.50;;;19.90;99.90;;;;;;5051752;28;20100;-48
2022/07/13 04:47:18;;;;;;;5.00;1.77;;;19.90;99.90;;;;;;5050867;28;20146;-48
2022/07/13 04:49:43;;;;;;;3.13;2.00;;;20.00;99.90;;;;;;5051919;28;20021;-46
2022/07/13 04:52:09;;;;;;;8.52;1.80;;;20.00;99.90;;;;;;5050562;28;20021;-47
2022/07/13 04:54:34;;;;;;;10.73;1.92;;;20.10;99.90;;;;;;5033550;28;20104;-47
2022/07/13 04:56:59;;;;;;;5.05;1.70;;;20.10;99.90;;;;;;5050975;28;20025;-49
2022/07/13 04:59:25;;;;;;;4.07;2.05;;;20.10;99.90;;;;;;5051598;28;20052;-49
2022/07/13 05:01:51;;;;;;;5.40;1.60;;;20.10;99.90;;;;;;5051388;28;20103;-48
2022/07/13 05:04:16;;;;;;;3.75;2.03;;;20.20;99.90;;;;;;5051658;28;20075;-48
2022/07/13 05:06:42;;;;;;;6.97;2.03;;;20.20;99.90;;;;;;5051576;28;20411;-51
2022/07/13 05:09:07;;;;;;;5.53;1.70;;;20.30;99.90;;;;;;5051218;28;20082;-50
2022/07/13 05:11:32;;;;;;;5.88;1.77;;;20.30;99.90;;;;;;5052091;28;20058;-47
2022/07/13 05:13:58;;;;;;;3.70;1.98;;;20.40;99.90;;;;;;5052292;28;20104;-51
2022/07/13 05:16:23;;;;;;;8.93;1.90;;;20.40;99.90;;;;;;5052916;28;20048;-49
2022/07/13 05:18:49;;;;;;;3.13;2.08;;;20.40;99.90;;;;;;5051066;28;20070;-49
2022/07/13 05:21:15;;;;;;;3.63;1.80;;;20.30;99.90;;;;;;5051827;28;20025;-48
2022/07/13 05:23:40;;;;;;;7.70;1.75;;;20.30;99.90;;;;;;5051769;28;20393;-47
2022/07/13 05:26:06;;;;;;;1.85;1.73;;;20.20;99.90;;;;;;5051825;28;20075;-49
2022/07/13 05:28:32;;;;;;;3.67;1.83;;;20.20;99.90;;;;;;5051192;28;20040;-51
2022/07/13 05:30:58;;;;;;;3.38;1.85;;;20.30;99.90;;;;;;5051626;28;20460;-48
2022/07/13 05:33:23;;;;;;;4.57;1.90;;;20.30;99.90;;;;;;5051376;28;20032;-47
2022/07/13 05:35:49;;;;;;;1.95;1.55;;;20.30;99.90;;;;;;5051158;28;20033;-49
2022/07/13 05:38:15;;;;;;;7.70;1.80;;;20.30;99.90;;;;;;5050497;28;20053;-46
2022/07/13 05:40:40;;;;;;;3.67;2.00;;;20.20;99.90;;;;;;5051251;28;20013;-49
2022/07/13 05:43:06;;;;;;;3.25;1.65;;;20.20;99.90;;;;;;5033218;28;20025;-50
2022/07/13 05:45:31;;;;;;;4.70;1.40;;;20.30;99.90;;;;;;5051126;28;20120;-47
2022/07/13 05:47:57;;;;;;;2.53;1.48;;;20.30;99.90;;;;;;5050349;28;20119;-46
2022/07/13 05:50:23;;;;;;;4.32;1.42;;;20.40;99.90;;;;;;5051093;28;20025;-49
2022/07/13 05:52:48;;;;;;;4.70;1.60;;;20.40;99.90;;;;;;5050094;28;20064;-48
2022/07/13 05:55:14;;;;;;;2.63;1.50;;;20.50;99.90;;;;;;5050955;28;20117;-46
2022/07/13 05:57:39;;;;;;;4.43;2.05;;;20.60;99.90;;;;;;5050168;28;20044;-47
2022/07/13 06:00:10;;;;;;;3.60;1.70;;;20.80;99.90;;;;;;5050988;28;20389;-48
2022/07/13 06:02:36;;;;;;;2.35;1.77;;;20.90;99.90;;;;;;5051065;28;20131;-48
2022/07/13 06:05:02;;;;;;;9.18;1.70;;;21.00;99.90;;;;;;5050839;28;20515;-45
2022/07/13 06:07:28;;;;;;;7.90;1.63;;;21.20;99.90;;;;;;5050519;28;20109;-47
2022/07/13 06:09:53;;;;;;;2.08;1.33;;;21.30;99.70;;;;;;5052627;28;20021;-48
2022/07/13 06:12:19;;;;;;;1.95;1.30;;;21.40;99.80;;;;;;5050155;28;20021;-51
2022/07/13 06:14:44;;;;;;;2.22;1.60;;;21.50;99.50;;;;;;5051464;28;20091;-48
2022/07/13 06:17:10;;;;;;;2.92;1.67;;;21.50;99.20;;;;;;5053340;28;20033;-47
2022/07/13 06:19:35;;;;;;;6.78;1.58;;;21.50;99.40;;;;;;5054639;28;20429;-50
2022/07/13 06:22:00;;;;;;;1.88;1.58;;;21.60;99.20;;;;;;5052689;28;20029;-49
2022/07/13 06:24:26;;;;;;;2.55;1.58;;;21.60;98.60;;;;;;5036478;28;20017;-54
2022/07/13 06:26:51;;;;;;;9.50;2.00;;;21.60;98.80;;;;;;5053830;28;20033;-50
2022/07/13 06:29:17;;;;;;;4.60;1.75;;;21.60;99.00;;;;;;5054150;28;20064;-48
2022/07/13 06:31:43;;;;;;;9.75;2.20;;;21.70;99.20;;;;;;5052642;28;20028;-49
2022/07/13 06:34:08;;;;;;;4.88;2.05;;;21.70;99.30;;;;;;5053992;28;20033;-48
2022/07/13 06:36:34;;;;;;;1.58;1.48;;;21.70;99.10;;;;;;5054024;28;20052;-46
2022/07/13 06:39:00;;;;;;;2.92;1.80;;;21.70;99.00;;;;;;5053290;28;20397;-49
2022/07/13 06:41:26;;;;;;;3.80;2.45;;;21.80;99.30;;;;;;5054209;28;20032;-47
2022/07/13 06:43:51;;;;;;;3.85;1.45;;;21.80;99.30;;;;;;5053926;28;20036;-49
2022/07/13 06:46:17;;;;;;;5.07;1.90;;;22.00;99.20;;;;;;5053951;28;20044;-45
2022/07/13 06:48:42;;;;;;;2.17;1.65;;;22.00;99.20;;;;;;5053051;28;20531;-47
2022/07/13 06:51:08;;;;;;;7.22;1.55;;;22.10;99.30;;;;;;5035978;28;20453;-49
2022/07/13 06:53:33;;;;;;;9.50;2.08;;;22.20;98.90;;;;;;5053593;28;20029;-51
2022/07/13 06:55:59;;;;;;;3.35;1.63;;;22.30;99.10;;;;;;5053831;28;20032;-47
2022/07/13 06:58:24;;;;;;;9.20;2.05;;;22.50;98.80;;;;;;5054099;28;20040;-47
2022/07/13 07:00:50;;;;;;;7.93;1.85;;;22.70;98.70;;;;;;5073922;28;20056;-53
2022/07/13 07:03:17;;;;;;;4.50;2.10;;;22.90;98.00;;;;;;5054119;28;20477;-50
2022/07/13 07:05:43;;;;;;;10.45;2.95;;;23.20;97.10;;;;;;5053858;28;20033;-47
2022/07/13 07:08:08;;;;;;;4.13;2.40;;;23.40;96.80;;;;;;5050024;28;20032;-46
2022/07/13 07:10:34;;;;;;;4.00;1.40;;;23.60;96.50;;;;;;5046208;28;20040;-47
2022/07/13 07:13:00;;;;;;;2.30;1.35;;;24.20;96.10;;;;;;5053137;28;20082;-47
2022/07/13 07:15:25;;;;;;;1.42;1.33;;;24.80;95.40;;;;;;5053521;28;20025;-48
2022/07/13 07:17:51;;;;;;;4.22;1.85;;;25.50;93.90;;;;;;5052622;28;20025;-52
2022/07/13 07:20:17;;;;;;;3.95;1.65;;;26.80;92.80;;;;;;5057214;28;20013;-46
2022/07/13 07:22:45;;;;;;;2.92;1.63;;;28.40;90.20;;;;;;5053260;28;20025;-48
2022/07/13 07:25:11;;;;;;;4.05;1.35;;;29.50;85.90;;;;;;5052799;28;20037;-48
2022/07/13 07:27:38;;;;;;;4.05;0.98;;;30.50;81.80;;;;;;5052316;28;20024;-47
2022/07/13 07:30:04;;;;;;;7.28;1.50;;;31.60;77.90;;;;;;5053489;28;20037;-49
2022/07/13 07:32:30;;;;;;;3.00;1.25;;;32.10;75.90;;;;;;5053113;28;20036;-47
2022/07/13 07:34:56;;;;;;;5.30;1.10;;;32.60;74.80;;;;;;5052873;28;20404;-48
2022/07/13 07:37:22;;;;;;;2.90;1.48;;;32.80;70.80;;;;;;5052041;28;20511;-47
2022/07/13 07:39:49;;;;;;;6.20;1.73;;;33.20;71.10;;;;;;5052634;28;20065;-47
2022/07/13 07:42:15;;;;;;;4.80;1.20;;;33.90;69.90;;;;;;5052713;28;20496;-49
2022/07/13 07:44:40;;;;;;;2.05;1.00;;;34.40;67.70;;;;;;5053341;28;20029;-47
2022/07/13 07:47:06;;;;;;;2.90;1.13;;;33.80;67.80;;;;;;5061392;28;20028;-51
2022/07/13 07:49:32;;;;;;;4.35;1.88;;;32.70;69.40;;;;;;5072677;28;20032;-52
2022/07/13 07:51:58;;;;;;;6.97;1.08;;;32.70;70.70;;;;;;5072693;28;20020;-49
2022/07/13 07:54:24;;;;;;;3.45;1.00;;;33.20;70.00;;;;;;5054771;28;20028;-49
2022/07/13 07:56:50;;;;;;;1.38;0.95;;;34.10;68.70;;;;;;5072075;28;20344;-49
2022/07/13 07:59:16;;;;;;;2.10;1.20;;;35.30;65.60;;;;;;5043428;22;20054;-51
2022/07/13 08:01:42;;;;;;;3.78;1.40;;;35.70;65.30;;;;;;4990333;28;20034;-53
2022/07/13 08:04:07;;;;;;;3.72;1.10;;;35.40;64.80;;;;;;4990201;28;20026;-53
2022/07/13 08:06:33;;;;;;;2.13;1.75;;;35.50;63.60;;;;;;4988738;28;20409;-50
2022/07/13 08:08:58;;;;;;;8.40;1.42;;;35.70;64.20;;;;;;4988769;28;20030;-49
2022/07/13 08:11:24;;;;;;;4.45;1.27;;;36.30;62.20;;;;;;4989792;28;20027;-49
2022/07/13 08:13:51;;;;;;;1.45;0.80;;;36.70;61.60;;;;;;4988378;28;20033;-50
2022/07/13 08:16:18;;;;;;;3.00;0.88;;;36.80;60.20;;;;;;4988511;28;20018;-49
2022/07/13 08:18:44;;;;;;;1.38;1.00;;;36.30;59.90;;;;;;4989785;28;20528;-47
2022/07/13 08:21:10;;;;;;;5.57;1.70;;;35.30;61.00;;;;;;5069555;28;20121;-51
2022/07/13 08:23:51;;;;;;;0.93;0.70;;;34.30;63.40;;;;;;4989887;28;20022;-51
2022/07/13 08:26:22;;;;;;;1.70;1.10;;;33.50;64.40;;;;;;4989931;28;20394;-49
2022/07/13 08:28:48;;;;;;;1.80;1.00;;;33.00;65.60;;;;;;4989108;28;20041;-49
2022/07/13 08:31:13;;;;;;;3.38;0.80;;;32.50;67.10;;;;;;4989871;28;20030;-47
2022/07/13 08:39:09;;;;;;;2.40;0.88;;;30.60;68.50;;;;;;4988053;28;20117;-47
2022/07/13 08:41:35;;;;;;;3.10;1.00;;;30.00;70.40;;;;;;4989683;28;20026;-48
2022/07/13 08:44:01;;;;;;;1.65;0.70;;;29.50;71.10;;;;;;4989654;28;20033;-51
2022/07/13 08:46:27;;;;;;;3.47;0.80;;;29.10;71.30;;;;;;4989628;28;20049;-51
2022/07/13 08:48:55;;;;;;;1.75;0.80;;;28.80;71.90;;;;;;4988861;28;20456;-51
2022/07/13 08:51:21;;;;;;;6.13;1.00;;;28.70;72.00;;;;;;4989686;28;20040;-50
2022/07/13 08:53:49;;;;;;;1.75;0.80;;;28.50;71.80;;;;;;4989417;28;20113;-50
2022/07/13 08:56:14;;;;;;;3.33;1.02;;;28.40;71.80;;;;;;4989392;28;20037;-47
2022/07/13 08:58:41;;;;;;;5.10;1.20;;;28.40;72.90;;;;;;4988757;28;20046;-53
2022/07/13 09:01:10;;;;;;;1.63;0.93;;;28.40;73.90;;;;;;4989754;28;20025;-48
2022/07/13 09:03:36;;;;;;;1.92;0.98;;;28.30;74.70;;;;;;4989381;28;20026;-50
2022/07/13 09:06:02;;;;;;;3.80;1.20;;;28.10;74.40;;;;;;4989337;28;20056;-51
2022/07/13 09:08:28;;;;;;;4.88;0.93;;;28.00;75.30;;;;;;4988699;28;20039;-52
2022/07/13 09:10:58;;;;;;;1.90;0.90;;;28.00;73.70;;;;;;4989215;28;20033;-47
2022/07/13 09:13:40;;;;;;;5.63;1.00;;;28.00;74.00;;;;;;4989472;28;20030;-53
2022/07/13 09:16:12;;;;;;;1.45;1.13;;;28.00;74.50;;;;;;4989437;28;20022;-47
2022/07/13 09:18:38;;;;;;;2.40;0.63;;;28.10;73.80;;;;;;4988528;28;20118;-51
2022/07/13 09:21:04;;;;;;;0.93;0.90;;;28.20;74.00;;;;;;4989672;28;20054;-49
2022/07/13 09:23:29;;;;;;;3.30;0.70;;;28.20;73.80;;;;;;4989344;28;20031;-48
2022/07/13 09:25:55;;;;;;;1.00;0.63;;;28.30;74.80;;;;;;4989340;28;20110;-49
2022/07/13 09:28:21;;;;;;;5.03;0.80;;;28.30;74.70;;;;;;4988330;28;20087;-50
2022/07/13 09:30:47;;;;;;;2.25;0.80;;;28.40;74.00;;;;;;4987925;28;20058;-52
2022/07/13 09:33:12;;;;;;;3.60;0.93;;;28.50;74.50;;;;;;4988909;28;20504;-49
2022/07/13 09:35:49;;;;;;;0.95;0.77;;;28.60;72.00;;;;;;4988904;28;20442;-52
2022/07/13 09:38:31;;;;;;;1.98;1.00;;;28.50;71.30;;;;;;4988006;28;20030;-49
2022/07/13 09:41:24;;;;;;;7.63;1.08;;;28.60;71.00;;;;;;4989116;28;20093;-51
2022/07/13 09:47:04;;;;;;;2.92;0.70;;;29.10;70.50;;;;;;4988864;28;20076;-52
2022/07/13 09:49:40;;;;;;;3.20;0.95;;;29.30;71.80;;;;;;4990938;28;20596;-51
2022/07/13 09:52:16;;;;;;;3.33;0.68;;;29.30;69.50;;;;;;4992349;28;20031;-51
2022/07/13 09:54:43;;;;;;;3.50;0.80;;;29.30;70.20;;;;;;4992570;28;20030;-46
2022/07/13 09:57:12;;;;;;;2.42;0.68;;;29.30;70.40;;;;;;4992093;28;20030;-46
2022/07/13 09:59:39;;;;;;;3.08;0.80;;;29.30;69.30;;;;;;4992270;28;20113;-48
2022/07/13 10:02:07;;;;;;;2.45;0.70;;;29.10;69.30;;;;;;4991238;28;20449;-51
2022/07/13 10:04:32;;;;;;;3.35;0.73;;;29.00;68.40;;;;;;4992265;28;20018;-49
2022/07/13 10:07:02;;;;;;;1.02;0.47;;;29.00;69.50;;;;;;4991515;28;20655;-48
2022/07/13 10:09:31;;;;;;;3.10;0.80;;;29.10;70.00;;;;;;4991863;28;20030;-47
2022/07/13 10:11:58;;;;;;;6.43;0.75;;;29.10;70.10;;;;;;4991899;28;20121;-49
2022/07/13 10:14:27;;;;;;;3.60;0.70;;;29.10;69.20;;;;;;4991866;28;20030;-50
2022/07/13 10:17:01;;;;;;;8.02;0.80;;;29.30;69.30;;;;;;4991106;28;20026;-48
2022/07/13 10:19:28;;;;;;;2.42;0.80;;;29.50;69.00;;;;;;4992144;28;20026;-53
2022/07/13 10:22:09;;;;;;;1.05;0.80;;;29.70;68.00;;;;;;4991810;28;20508;-47
2022/07/13 10:24:35;;;;;;;16.42;0.80;;;29.80;67.10;;;;;;4992345;28;20035;-48
2022/07/13 10:27:21;;;;;;;5.78;0.70;;;29.70;65.20;;;;;;4991074;28;20037;-51
2022/07/13 10:29:51;;;;;;;2.00;0.60;;;29.60;67.20;;;;;;4992107;28;20018;-47
2022/07/13 10:32:20;;;;;;;0.82;0.60;;;29.60;66.80;;;;;;4991602;28;20026;-49
2022/07/13 10:35:05;;;;;;;4.78;0.93;;;29.60;66.20;;;;;;4991638;28;20057;-46
2022/07/13 10:37:56;;;;;;;3.65;0.90;;;29.40;66.70;;;;;;4989860;28;20026;-48
2022/07/13 10:40:32;;;;;;;2.88;0.90;;;29.30;66.10;;;;;;4991509;28;20101;-48
2022/07/13 10:42:58;;;;;;;8.98;0.88;;;29.30;66.20;;;;;;4991503;28;20022;-50
2022/07/13 10:45:32;;;;;;;0.50;0.50;;;29.30;66.10;;;;;;4991297;28;20031;-46
2022/07/13 10:47:59;;;;;;;1.35;0.57;;;29.20;65.70;;;;;;4990716;28;20019;-50
2022/07/13 10:50:34;;;;;;;0.80;0.80;;;29.10;65.50;;;;;;4991528;28;20057;-52
2022/07/13 10:53:00;;;;;;;3.70;0.77;;;29.10;65.70;;;;;;4991626;28;20478;-50
2022/07/13 10:55:30;;;;;;;0.98;0.80;;;29.10;66.50;;;;;;4991285;28;20117;-45
2022/07/13 10:57:56;;;;;;;3.90;0.95;;;29.00;65.70;;;;;;4990316;28;20485;-52
2022/07/13 11:00:37;;;;;;;2.58;0.60;;;29.00;65.70;;;;;;4990555;28;20063;-50
2022/07/13 11:03:06;;;;;;;3.60;0.90;;;29.00;65.30;;;;;;4991244;28;20021;-47
2022/07/13 11:05:36;;;;;;;5.72;0.90;;;29.10;66.80;;;;;;4991284;28;20037;-49
2022/07/13 11:08:15;;;;;;;1.13;1.00;;;29.30;66.90;;;;;;4990411;28;20394;-51
2022/07/13 11:10:41;;;;;;;4.13;0.80;;;29.40;66.70;;;;;;4991133;28;20034;-47
2022/07/13 11:13:14;;;;;;;2.17;1.08;;;29.50;66.30;;;;;;4991014;28;20481;-47
2022/07/13 11:15:46;;;;;;;4.72;0.93;;;29.70;66.60;;;;;;4990990;28;20036;-53
2022/07/13 11:18:24;;;;;;;3.65;0.60;;;29.70;65.90;;;;;;4990304;28;20436;-50
2022/07/13 11:21:14;;;;;;;3.10;0.80;;;29.70;63.70;;;;;;4990935;28;20633;-46
2022/07/13 11:26:46;;;;;;;3.08;0.70;;;29.90;65.00;;;;;;4991134;28;20112;-49
2022/07/13 11:29:42;;;;;;;6.85;0.88;;;30.10;63.80;;;;;;4990408;28;20049;-50
2022/07/13 11:32:08;;;;;;;2.85;0.68;;;30.20;64.10;;;;;;4990816;28;20196;-51
2022/07/13 11:34:35;;;;;;;5.25;0.77;;;30.30;63.90;;;;;;4991455;28;20062;-50
2022/07/13 11:37:01;;;;;;;1.17;0.50;;;30.30;62.60;;;;;;4989781;28;20026;-50
2022/07/13 11:39:30;;;;;;;0.60;0.60;;;30.30;61.20;;;;;;4990942;28;20446;-48
2022/07/13 11:41:57;;;;;;;2.78;0.80;;;30.20;61.40;;;;;;4990742;28;20113;-49
2022/07/13 11:44:25;;;;;;;0.57;0.57;;;30.30;59.60;;;;;;4990628;28;20080;-51
2022/07/13 11:46:53;;;;;;;1.85;0.60;;;30.30;59.50;;;;;;4990086;28;20030;-53
2022/07/13 11:49:19;;;;;;;7.03;0.82;;;30.20;60.30;;;;;;4990435;28;20098;-50
2022/07/13 11:51:44;;;;;;;0.70;0.70;;;30.30;60.70;;;;;;4990648;28;20508;-52
2022/07/13 11:54:15;;;;;;;1.90;0.73;;;30.30;60.50;;;;;;4990560;28;20076;-52
2022/07/13 11:56:51;;;;;;;4.05;0.70;;;30.40;58.80;;;;;;4990416;28;20079;-45
2022/07/13 11:59:36;;;;;;;1.50;0.65;;;30.30;60.00;;;;;;4989368;28;20038;-49
2022/07/13 12:02:03;;;;;;;0.90;0.68;;;30.20;61.10;;;;;;4989281;28;20056;-54
2022/07/13 12:04:29;;;;;;;8.73;1.25;;;30.10;61.30;;;;;;4990333;28;20045;-50
2022/07/13 12:07:20;;;;;;;4.25;1.02;;;30.00;60.40;;;;;;4989578;28;20037;-51
2022/07/13 12:09:55;;;;;;;4.53;0.65;;;30.00;61.00;;;;;;4990747;28;20026;-52
2022/07/13 12:12:30;;;;;;;3.25;1.58;;;30.00;60.30;;;;;;4989068;28;20030;-49
2022/07/13 12:14:56;;;;;;;3.42;0.80;;;30.00;59.80;;;;;;4990284;28;20410;-50
2022/07/13 12:17:24;;;;;;;1.20;0.50;;;30.00;61.00;;;;;;4989322;28;20101;-49
2022/07/13 12:19:50;;;;;;;4.18;0.60;;;30.00;60.90;;;;;;4990160;28;20110;-50
2022/07/13 12:22:21;;;;;;;4.45;0.70;;;30.00;60.30;;;;;;4990072;28;20097;-51
2022/07/13 12:24:47;;;;;;;0.70;0.70;;;30.10;61.00;;;;;;4990058;28;20030;-53
2022/07/13 12:27:26;;;;;;;3.60;0.70;;;30.10;60.50;;;;;;4989331;28;20057;-53
2022/07/13 12:30:06;;;;;;;2.30;0.43;;;30.10;61.50;;;;;;4989937;28;20026;-52
2022/07/13 12:32:31;;;;;;;3.97;1.02;;;30.10;61.40;;;;;;4988542;28;20037;-53
2022/07/13 12:34:57;;;;;;;6.07;0.60;;;30.00;60.80;;;;;;4990186;28;20406;-47
2022/07/13 12:37:33;;;;;;;0.98;0.47;;;30.00;60.40;;;;;;4989037;28;20072;-50
2022/07/13 12:39:59;;;;;;;2.47;0.80;;;29.90;60.50;;;;;;4989670;28;20019;-51
2022/07/13 12:42:25;;;;;;;0.85;0.60;;;29.80;60.60;;;;;;4989905;28;20022;-52
2022/07/13 12:44:51;;;;;;;4.05;1.00;;;29.80;60.70;;;;;;4989979;28;20508;-51
2022/07/13 12:47:24;;;;;;;4.95;0.50;;;29.90;61.10;;;;;;4989052;28;20034;-49
2022/07/13 12:49:50;;;;;;;3.42;0.88;;;29.90;60.40;;;;;;4989832;28;20022;-52
2022/07/13 12:52:19;;;;;;;6.10;0.73;;;30.00;60.00;;;;;;4989791;28;20401;-51
2022/07/13 12:54:50;;;;;;;0.95;0.80;;;30.10;60.20;;;;;;4990055;28;20030;-53
2022/07/13 12:57:18;;;;;;;2.65;0.70;;;30.10;60.00;;;;;;4987842;28;20038;-50